Imnaha, OR

3:15 PM PDT on June 02, 2015 (GMT -0700)
Elementary School | | Change Station
CLOSE
Current Station
Personal Weather Station
Location: Imnaha, OR
Elevation: 1978 ft
Nearby Weather Stations

Elev 1978 ft 45.56 °N, 116.83 °W | Updated 21 seconds ago

Mostly Cloudy
Mostly Cloudy
61.2 °F
Feels Like 61.2 °F
N
1.0
Wind Variable Wind from SW
Gusts 8.0 mph

Today
High -- | Low -- °F
--% Chance of Precip.
Yesterday
High -- | Low -- °F
Precip. -- in
5:01 AM 8:29 PM
Full, 100% visible
Pressure 29.99 in
Visibility 10.0 miles
Clouds Mostly Cloudy 3400 ft
Mostly Cloudy 4500 ft
Overcast 5000 ft
Dew Point 55 °F
Humidity 79%
Rainfall 0.15 in
Snow Depth Not available.
UV 3 out of 12
Pollen 5.30 out of 12
Air Quality Not available.
Flu Activity Sporadic
METAR KGIC 022200Z AUTO 24015G21KT 10SM BKN034 BKN045 OVC050 14/08 A2999 RMK AO1 T01440084

More Conditions Fewer Conditions

Pressure 29.99 in
Visibility 10.0 miles
Clouds Mostly Cloudy 3400 ft
Mostly Cloudy 4500 ft
Overcast 5000 ft
Dew Point 55 °F
Humidity 79%
Rainfall 0.15 in
Snow Depth Not available.
UV 3 out of 12
Pollen 5.30 out of 12
Air Quality Not available.
Flu Activity Sporadic
METAR KGIC 022200Z AUTO 24015G21KT 10SM BKN034 BKN045 OVC050 14/08 A2999 RMK AO1 T01440084

More Conditions Fewer Conditions

10-Day Weather Forecast

×

Almanac

Astronomy

Jun. 02, 2015 Rise Set
Actual Time
Civil Twilight
Nautical Twilight
Astronomical Twilight
Moon
Length of Visible Light
Length of Day
Tomorrow will be .
, % of the Moon is Illuminated

Today's Extremes

State Highs State Lows

Community

WunderPhotos

Upload Photos

1,826,039 photos uploaded!

WunderBlogs® & News

Nearby

Air Quality

  Air Quality AQ Index Pollutant
Not available.

Snow Depth

Station Depth Elevation

Earthquake Activity

City Distance Mag. Time & Date
Minimum magnitude displayed is 2.5.

Coastal Water Temperatures

Place Temperature

Stations

Nearby Weather Stations

Station Location Temp. Windchill Dew Point Humidity Wind Precip. Elev Updated Type